Time;durP1;ratioP1;P1;durP2;ratioP2;P2;SDS_P1;SDS_P2;PMS_P1;PMS_P2;Temp;Humidity;BMP_temperature;BMP_pressure;BME280_temperature;BME280_humidity;BME280_pressure;Samples;Min_cycle;Max_cycle;Signal;HPM_P1;HPM_P2
2021/11/10 00:01:37;;;;;;;13.50;8.93;;;;;;;4.82;79.61;96330.22;1683908;84;20989;-59
2021/11/10 00:04:06;;;;;;;11.53;9.08;;;;;;;4.73;79.63;96336.55;1682937;83;21508;-60
2021/11/10 00:06:33;;;;;;;14.15;9.90;;;;;;;4.68;79.75;96336.89;1694085;83;21188;-60
2021/11/10 00:09:00;;;;;;;12.58;9.20;;;;;;;4.64;79.71;96341.48;1693772;83;21182;-60
2021/11/10 00:11:27;;;;;;;8.48;7.28;;;;;;;4.51;79.76;96337.44;1696095;83;21008;-60
2021/11/10 00:13:53;;;;;;;8.05;6.80;;;;;;;4.40;79.92;96337.09;1678138;83;21542;-59
2021/11/10 00:16:22;;;;;;;8.20;7.12;;;;;;;4.32;79.86;96334.84;1681826;83;21056;-59
2021/11/10 00:18:51;;;;;;;7.92;7.10;;;;;;;4.35;80.06;96335.47;1690397;83;21056;-60
2021/11/10 00:21:19;;;;;;;9.30;7.67;;;;;;;4.38;79.85;96342.90;1700510;83;20969;-58
2021/11/10 00:23:46;;;;;;;8.18;7.37;;;;;;;4.32;79.95;96347.11;1709726;82;21061;-60
2021/11/10 00:26:13;;;;;;;8.28;7.05;;;;;;;4.30;80.14;96341.80;1702391;83;21249;-60
2021/11/10 00:28:40;;;;;;;7.20;6.30;;;;;;;4.27;80.15;96340.59;1682660;83;21002;-60
2021/11/10 00:31:09;;;;;;;7.60;6.85;;;;;;;4.24;80.16;96344.06;1703564;83;21032;-60
2021/11/10 00:33:37;;;;;;;6.53;5.87;;;;;;;4.24;80.10;96344.65;1685715;83;20983;-60
2021/11/10 00:36:04;;;;;;;6.05;5.50;;;;;;;4.22;79.88;96356.49;1687382;83;21551;-60
2021/11/10 00:38:31;;;;;;;5.83;5.30;;;;;;;4.16;79.62;96350.57;1696321;83;21142;-60
2021/11/10 00:40:58;;;;;;;6.20;5.60;;;;;;;4.07;79.63;96348.66;1691409;83;21123;-59
2021/11/10 00:43:25;;;;;;;5.95;5.45;;;;;;;4.03;79.67;96343.75;1687565;83;21442;-59
2021/11/10 00:45:51;;;;;;;6.58;5.72;;;;;;;3.99;79.77;96342.12;1694851;83;20950;-60
2021/11/10 00:48:19;;;;;;;7.47;6.50;;;;;;;3.97;79.83;96334.33;1689534;83;20961;-60
2021/11/10 00:50:47;;;;;;;6.28;5.62;;;;;;;3.94;79.62;96336.43;1693970;83;21057;-59
2021/11/10 00:53:14;;;;;;;7.55;6.20;;;;;;;3.89;79.56;96335.95;1700476;83;21591;-60
2021/11/10 00:55:41;;;;;;;7.97;6.58;;;;;;;3.83;79.66;96332.75;1699113;83;21135;-59
2021/11/10 00:58:10;;;;;;;5.95;5.35;;;;;;;3.78;79.59;96328.98;1668674;83;21112;-60
2021/11/10 01:00:38;;;;;;;5.95;5.45;;;;;;;3.74;79.56;96332.23;1698600;83;21448;-58
2021/11/10 01:03:05;;;;;;;5.40;4.90;;;;;;;3.72;79.62;96330.42;1689198;83;21065;-60
2021/11/10 01:05:34;;;;;;;5.83;5.33;;;;;;;3.73;79.76;96333.34;1691432;84;20972;-59
2021/11/10 01:08:03;;;;;;;7.92;6.33;;;;;;;3.74;79.80;96323.27;1691651;84;21791;-59
2021/11/10 01:10:31;;;;;;;8.10;6.25;;;;;;;3.73;79.86;96321.10;1685890;83;21466;-59
2021/11/10 01:13:01;;;;;;;6.53;5.92;;;;;;;3.74;80.20;96329.51;1690127;83;21580;-59
2021/11/10 01:15:29;;;;;;;6.60;5.97;;;;;;;3.83;80.16;96330.62;1706785;83;21024;-60
2021/11/10 01:17:55;;;;;;;6.30;5.70;;;;;;;3.89;79.78;96331.27;1714717;83;21083;-60
2021/11/10 01:20:23;;;;;;;6.60;5.90;;;;;;;3.86;79.42;96329.88;1700046;83;21140;-60
2021/11/10 01:22:51;;;;;;;6.85;6.12;;;;;;;3.84;79.33;96329.47;1689783;83;21584;-60
2021/11/10 01:25:18;;;;;;;9.75;7.28;;;;;;;3.83;79.41;96325.17;1694205;84;21085;-59
2021/11/10 01:27:45;;;;;;;8.95;6.37;;;;;;;3.85;79.54;96321.50;1703600;83;21583;-60
2021/11/10 01:30:12;;;;;;;7.87;6.28;;;;;;;3.87;79.55;96323.28;1702551;83;21079;-59
2021/11/10 01:32:41;;;;;;;8.13;6.20;;;;;;;3.83;79.50;96315.05;1669460;83;21827;-60
2021/11/10 01:35:08;;;;;;;7.47;6.75;;;;;;;3.83;79.34;96312.92;1687963;83;20963;-59
2021/11/10 01:37:36;;;;;;;8.10;6.25;;;;;;;3.82;79.29;96312.13;1680411;83;20992;-59
2021/11/10 01:40:05;;;;;;;8.30;7.12;;;;;;;3.86;79.42;96320.35;1697328;83;21006;-59
2021/11/10 01:42:32;;;;;;;10.85;7.70;;;;;;;3.89;79.37;96313.58;1687623;83;21068;-60
2021/11/10 01:44:59;;;;;;;7.50;6.65;;;;;;;3.90;79.48;96319.23;1678928;83;21144;-58
2021/11/10 01:47:27;;;;;;;6.95;6.22;;;;;;;3.92;79.48;96316.95;1678418;83;21058;-59
2021/11/10 01:49:55;;;;;;;6.47;5.87;;;;;;;3.97;79.34;96322.08;1691486;83;21016;-59
2021/11/10 01:52:22;;;;;;;6.53;5.97;;;;;;;3.96;79.11;96320.52;1689144;83;21104;-61
2021/11/10 01:54:50;;;;;;;6.67;6.08;;;;;;;3.94;78.85;96328.27;1691217;83;20972;-60
2021/11/10 01:57:18;;;;;;;6.67;5.97;;;;;;;3.91;78.86;96320.80;1701241;83;21104;-60
2021/11/10 01:59:51;;;;;;;8.83;6.97;;;;;;;3.91;79.07;96317.31;1696854;84;21017;-59
2021/11/10 02:02:22;;;;;;;8.80;7.10;;;;;;;3.95;79.26;96317.58;1685730;83;20954;-59
2021/11/10 02:04:51;;;;;;;8.05;6.80;;;;;;;4.00;79.18;96315.09;1701400;82;21158;-59
2021/11/10 02:07:21;;;;;;;8.10;7.17;;;;;;;4.05;79.18;96314.80;1680711;83;21430;-59
2021/11/10 02:09:50;;;;;;;8.20;6.50;;;;;;;4.09;79.02;96321.85;1676636;85;21168;-58
2021/11/10 02:12:17;;;;;;;7.80;7.00;;;;;;;4.07;78.74;96320.08;1676086;84;21006;-59
2021/11/10 02:14:47;;;;;;;8.28;6.60;;;;;;;4.03;78.81;96313.80;1678846;84;21500;-59
2021/11/10 02:17:19;;;;;;;9.55;7.95;;;;;;;4.00;78.60;96309.66;1681306;84;21557;-59
2021/11/10 02:19:47;;;;;;;7.97;7.10;;;;;;;3.91;78.63;96305.83;1676551;84;21049;-57
2021/11/10 02:22:17;;;;;;;7.15;6.47;;;;;;;3.90;78.79;96304.85;1694549;83;21131;-59
2021/11/10 02:24:44;;;;;;;6.92;6.28;;;;;;;3.87;78.76;96307.72;1696292;82;21066;-59
2021/11/10 02:27:22;;;;;;;7.58;6.87;;;;;;;3.83;78.78;96304.16;1689497;83;20958;-60
2021/11/10 02:29:46;;;;;;;11.93;8.80;;;;;;;3.80;78.77;96307.62;1680673;84;21068;-59
2021/11/10 02:32:15;;;;;;;40.03;22.10;;;;;;;3.79;78.79;96299.81;1682634;84;21020;-58
2021/11/10 02:34:44;;;;;;;23.73;15.83;;;;;;;3.82;78.97;96306.68;1677584;84;21873;-59
2021/11/10 02:37:14;;;;;;;47.83;25.17;;;;;;;3.88;78.77;96316.09;1684797;84;20981;-59
2021/11/10 02:39:43;;;;;;;33.08;19.27;;;;;;;3.90;78.59;96320.59;1678390;85;21579;-60
2021/11/10 02:42:10;;;;;;;17.02;12.20;;;;;;;3.87;78.49;96321.33;1685074;83;20994;-58
2021/11/10 02:44:36;;;;;;;10.82;8.45;;;;;;;3.82;78.49;96318.13;1684098;84;20962;-58
2021/11/10 02:47:04;;;;;;;9.98;7.30;;;;;;;3.81;78.49;96317.36;1680904;84;21104;-59
2021/11/10 02:49:31;;;;;;;7.67;6.87;;;;;;;3.82;78.50;96312.69;1685955;84;20985;-60
2021/11/10 02:52:04;;;;;;;6.80;6.08;;;;;;;3.81;78.54;96306.47;1679152;84;21006;-59
2021/11/10 02:54:34;;;;;;;6.97;6.37;;;;;;;3.79;78.48;96297.89;1677803;83;21013;-58
2021/11/10 02:57:04;;;;;;;7.53;6.40;;;;;;;3.81;78.42;96294.78;1676852;83;21068;-59
2021/11/10 02:59:32;;;;;;;10.30;7.60;;;;;;;3.84;78.25;96298.16;1698501;83;21146;-59
2021/11/10 03:02:00;;;;;;;13.38;7.37;;;;;;;3.89;78.40;96308.14;1686771;83;20968;-58
2021/11/10 03:04:30;;;;;;;8.58;7.67;;;;;;;3.97;78.18;96311.19;1697529;83;20981;-59
2021/11/10 03:06:57;;;;;;;9.03;6.30;;;;;;;4.05;78.05;96307.41;1690086;83;20953;-58
2021/11/10 03:09:28;;;;;;;9.30;7.17;;;;;;;4.11;77.86;96305.95;1698728;83;21049;-56
2021/11/10 03:11:59;;;;;;;18.45;13.08;;;;;;;4.14;77.72;96307.94;1681879;83;21193;-58
2021/11/10 03:14:28;;;;;;;50.00;35.03;;;;;;;4.16;77.66;96308.91;1648681;84;21013;-58
2021/11/10 03:16:56;;;;;;;9.58;8.60;;;;;;;4.27;77.62;96296.23;1702579;83;21088;-58
2021/11/10 03:19:23;;;;;;;8.40;7.60;;;;;;;4.37;77.12;96292.30;1702584;83;21035;-59
2021/11/10 03:21:51;;;;;;;8.95;6.97;;;;;;;4.42;76.49;96289.83;1691796;83;21024;-58
2021/11/10 03:24:18;;;;;;;9.83;6.95;;;;;;;4.39;76.28;96292.70;1689588;83;21249;-59
2021/11/10 03:26:47;;;;;;;7.47;6.78;;;;;;;4.39;76.26;96296.79;1682588;83;21072;-59
2021/11/10 03:29:14;;;;;;;7.22;6.50;;;;;;;4.42;76.06;96297.41;1706330;83;21005;-60
2021/11/10 03:31:43;;;;;;;7.25;5.90;;;;;;;4.46;76.05;96305.05;1685350;83;21195;-59
2021/11/10 03:34:11;;;;;;;7.05;5.75;;;;;;;4.48;75.80;96302.77;1691697;83;20964;-59
2021/11/10 03:36:39;;;;;;;12.10;7.05;;;;;;;4.47;75.63;96301.75;1688253;83;21025;-60
2021/11/10 03:39:09;;;;;;;13.50;9.40;;;;;;;4.49;75.55;96309.78;1681680;83;21073;-60
2021/11/10 03:41:37;;;;;;;6.33;5.70;;;;;;;4.51;75.19;96307.47;1682580;83;21072;-59
2021/11/10 03:44:07;;;;;;;6.60;5.90;;;;;;;4.47;74.83;96307.20;1681981;83;20980;-59
2021/11/10 03:46:37;;;;;;;17.67;12.30;;;;;;;4.44;74.67;96300.55;1704337;83;21036;-59
2021/11/10 03:49:06;;;;;;;13.10;9.08;;;;;;;4.42;74.80;96300.73;1691009;83;21269;-59
2021/11/10 03:51:33;;;;;;;11.93;9.70;;;;;;;4.43;74.79;96300.93;1683789;83;21065;-60
2021/11/10 03:54:01;;;;;;;8.03;6.78;;;;;;;4.38;75.08;96304.76;1695246;83;21194;-62
2021/11/10 03:56:28;;;;;;;5.75;5.25;;;;;;;4.45;75.15;96295.89;1700401;84;21008;-58
2021/11/10 03:58:55;;;;;;;5.00;4.60;;;;;;;4.46;74.72;96291.42;1691068;82;21085;-58
2021/11/10 04:01:22;;;;;;;6.47;5.75;;;;;;;4.45;74.57;96282.27;1686283;83;21092;-60
2021/11/10 04:03:50;;;;;;;7.55;5.80;;;;;;;4.52;74.50;96277.70;1684817;83;20996;-60
2021/11/10 04:06:19;;;;;;;5.95;5.17;;;;;;;4.57;74.14;96280.67;1693233;84;21569;-66
2021/11/10 04:08:48;;;;;;;11.00;7.45;;;;;;;4.62;74.25;96274.30;1687904;83;21094;-60
2021/11/10 04:11:14;;;;;;;5.33;4.85;;;;;;;4.62;73.87;96276.25;1700980;83;21006;-59
2021/11/10 04:13:43;;;;;;;6.92;4.85;;;;;;;4.69;74.03;96273.03;1704635;83;21535;-59
2021/11/10 04:16:10;;;;;;;6.37;5.03;;;;;;;4.78;73.63;96272.74;1678342;84;20979;-58
2021/11/10 04:18:38;;;;;;;5.40;4.90;;;;;;;4.81;73.32;96268.67;1702847;83;21194;-60
2021/11/10 04:21:14;;;;;;;6.05;5.50;;;;;;;4.83;73.16;96270.44;1692942;83;21023;-60
2021/11/10 04:23:41;;;;;;;6.70;6.10;;;;;;;4.85;73.19;96265.42;1701224;82;21237;-60
2021/11/10 04:26:12;;;;;;;6.30;5.70;;;;;;;4.93;73.00;96267.06;1683607;83;21073;-59
2021/11/10 04:28:39;;;;;;;8.98;6.83;;;;;;;5.02;72.50;96268.13;1681660;83;21089;-59
2021/11/10 04:31:06;;;;;;;9.93;8.93;;;;;;;4.95;72.22;96260.65;1670660;85;21014;-60
2021/11/10 04:33:35;;;;;;;20.88;15.72;;;;;;;4.86;72.32;96271.09;1697153;83;21108;-59
2021/11/10 04:36:05;;;;;;;16.17;11.95;;;;;;;4.83;72.39;96264.98;1672562;84;21536;-58
2021/11/10 04:38:34;;;;;;;19.95;14.05;;;;;;;4.90;72.47;96263.72;1685336;83;21105;-58
2021/11/10 04:41:02;;;;;;;8.40;7.50;;;;;;;4.86;71.93;96271.09;1675636;84;21517;-59
2021/11/10 04:43:28;;;;;;;6.20;5.60;;;;;;;4.79;72.26;96268.27;1698311;83;21459;-59
2021/11/10 04:48:40;;;;;;;5.85;5.35;;;;;;;4.71;72.82;96262.54;1690211;83;21039;-59
2021/11/10 04:51:09;;;;;;;11.22;9.73;;;;;;;4.78;73.00;96263.20;1708266;83;21128;-59
2021/11/10 04:53:38;;;;;;;5.60;5.20;;;;;;;4.75;72.66;96256.54;1678108;83;21065;-59
2021/11/10 04:56:07;;;;;;;8.10;4.90;;;;;;;4.69;72.77;96248.50;1678640;84;21026;-60
2021/11/10 04:58:35;;;;;;;5.67;5.15;;;;;;;4.57;72.88;96248.74;1683631;83;21091;-59
2021/11/10 05:01:02;;;;;;;5.42;4.92;;;;;;;4.46;73.34;96243.73;1705335;83;20964;-60
2021/11/10 05:03:28;;;;;;;6.42;5.58;;;;;;;4.38;73.56;96239.38;1700353;83;21182;-59
2021/11/10 05:05:55;;;;;;;5.75;5.25;;;;;;;4.26;73.86;96247.77;1696107;84;20992;-59
2021/11/10 05:08:23;;;;;;;5.30;4.80;;;;;;;4.14;74.08;96249.39;1679907;84;21136;-59
2021/11/10 05:10:51;;;;;;;9.45;5.60;;;;;;;4.08;74.52;96250.84;1684119;84;21452;-60
2021/11/10 05:13:19;;;;;;;5.80;5.30;;;;;;;4.08;74.50;96250.84;1685968;84;21429;-60
2021/11/10 05:15:48;;;;;;;5.70;5.20;;;;;;;4.03;74.65;96249.04;1672783;85;20978;-59
2021/11/10 05:18:17;;;;;;;10.43;7.33;;;;;;;4.04;74.92;96244.57;1685235;84;21040;-60
2021/11/10 05:20:44;;;;;;;6.83;6.20;;;;;;;4.02;75.10;96235.98;1700628;83;21533;-60
2021/11/10 05:23:11;;;;;;;5.67;5.17;;;;;;;4.03;75.11;96245.72;1703105;82;21000;-59
2021/11/10 05:25:40;;;;;;;5.53;5.12;;;;;;;3.99;75.01;96245.46;1704039;83;21253;-60
2021/11/10 05:28:07;;;;;;;5.10;4.70;;;;;;;3.89;75.24;96253.69;1703264;83;21169;-60
2021/11/10 05:30:36;;;;;;;7.40;5.78;;;;;;;3.82;75.08;96257.69;1699838;83;21535;-59
2021/11/10 05:33:04;;;;;;;14.47;9.40;;;;;;;3.80;75.37;96251.83;1706381;83;21134;-59
2021/11/10 05:35:30;;;;;;;14.03;8.90;;;;;;;3.85;75.81;96255.59;1690652;83;21146;-59
2021/11/10 05:37:57;;;;;;;8.95;6.62;;;;;;;3.94;75.57;96247.95;1695162;83;21508;-60
2021/11/10 05:40:24;;;;;;;16.05;7.08;;;;;;;3.99;75.24;96258.52;1689906;83;21045;-59
2021/11/10 05:42:51;;;;;;;5.80;5.30;;;;;;;3.96;75.22;96264.70;1692113;83;20966;-61
2021/11/10 05:45:18;;;;;;;6.35;5.72;;;;;;;3.90;75.06;96259.34;1691413;83;21778;-59
2021/11/10 05:47:45;;;;;;;6.62;6.03;;;;;;;3.94;75.26;96255.31;1694477;83;21101;-58
2021/11/10 05:50:13;;;;;;;5.70;5.10;;;;;;;4.00;75.15;96256.56;1688678;83;20978;-60
2021/11/10 05:52:42;;;;;;;6.78;5.75;;;;;;;4.06;74.60;96253.75;1692676;83;21985;-59
2021/11/10 05:55:08;;;;;;;5.80;5.30;;;;;;;3.99;74.83;96250.34;1705046;83;20976;-59
2021/11/10 05:57:38;;;;;;;5.10;4.67;;;;;;;4.07;75.18;96260.76;1696560;83;21055;-60
2021/11/10 06:00:06;;;;;;;6.03;5.53;;;;;;;4.14;75.00;96256.19;1700407;84;21560;-57
2021/11/10 06:02:35;;;;;;;5.95;5.35;;;;;;;4.16;74.83;96257.97;1697676;83;21005;-60
2021/11/10 06:05:02;;;;;;;7.12;6.45;;;;;;;4.17;74.75;96256.81;1704758;83;21151;-59
2021/11/10 06:07:30;;;;;;;7.90;7.17;;;;;;;4.19;74.75;96260.52;1696337;83;21084;-59
2021/11/10 06:09:58;;;;;;;10.35;9.35;;;;;;;4.20;74.90;96249.26;1696035;83;21039;-58
2021/11/10 06:12:25;;;;;;;11.73;7.60;;;;;;;4.29;74.93;96264.77;1698858;83;21044;-60
2021/11/10 06:14:52;;;;;;;10.05;8.78;;;;;;;4.48;74.51;96257.00;1694715;82;21111;-60
2021/11/10 06:17:19;;;;;;;7.80;6.33;;;;;;;4.60;74.10;96250.72;1690675;83;21137;-59
2021/11/10 06:19:47;;;;;;;12.35;9.40;;;;;;;4.69;73.73;96255.31;1699998;83;20997;-61
2021/11/10 06:22:14;;;;;;;10.45;8.03;;;;;;;4.72;73.36;96254.56;1702172;83;21028;-59
2021/11/10 06:24:40;;;;;;;8.25;5.58;;;;;;;4.79;73.01;96253.27;1691561;82;21515;-61
2021/11/10 06:27:07;;;;;;;9.33;8.25;;;;;;;4.80;72.05;96256.20;1692867;83;21070;-62
2021/11/10 06:29:34;;;;;;;35.50;19.60;;;;;;;4.70;71.63;96254.16;1693575;83;21137;-61
2021/11/10 06:32:02;;;;;;;69.12;36.13;;;;;;;4.61;71.56;96255.61;1702479;83;21154;-62
2021/11/10 06:34:30;;;;;;;57.75;28.55;;;;;;;4.57;71.84;96264.33;1701681;83;21466;-63
2021/11/10 06:36:57;;;;;;;18.12;15.45;;;;;;;4.58;72.01;96265.30;1692942;83;21020;-60
2021/11/10 06:39:23;;;;;;;15.83;8.58;;;;;;;4.71;72.29;96263.10;1690970;82;21128;-62
2021/11/10 06:41:50;;;;;;;6.70;4.83;;;;;;;4.81;71.61;96262.45;1687476;83;21104;-61
2021/11/10 06:44:17;;;;;;;4.60;4.20;;;;;;;4.73;71.12;96265.67;1692480;82;21072;-60
2021/11/10 06:46:46;;;;;;;5.30;4.90;;;;;;;4.61;71.16;96270.59;1688244;83;20997;-64
2021/11/10 06:49:12;;;;;;;6.03;5.35;;;;;;;4.51;71.53;96270.68;1703500;83;21566;-63
2021/11/10 06:51:39;;;;;;;10.48;5.87;;;;;;;4.53;71.44;96264.28;1693061;83;21163;-62
2021/11/10 06:54:07;;;;;;;13.65;7.42;;;;;;;4.58;71.55;96263.94;1689963;83;21111;-58
2021/11/10 06:56:35;;;;;;;13.13;6.97;;;;;;;4.63;71.60;96261.47;1702118;82;21955;-59
2021/11/10 06:59:03;;;;;;;10.25;5.83;;;;;;;4.65;71.40;96256.42;1704539;81;21155;-61
2021/11/10 07:01:30;;;;;;;8.10;5.00;;;;;;;4.59;71.52;96258.69;1694731;83;21171;-64
2021/11/10 07:03:57;;;;;;;17.92;7.03;;;;;;;4.61;71.38;96261.83;1698443;82;21056;-63
2021/11/10 07:06:23;;;;;;;10.60;6.70;;;;;;;4.67;71.24;96257.63;1697806;82;21136;-63
2021/11/10 07:08:51;;;;;;;17.85;8.08;;;;;;;4.75;71.55;96256.54;1687968;83;21031;-73
2021/11/10 07:11:18;;;;;;;17.45;7.75;;;;;;;4.89;71.57;96247.16;1683901;82;21010;-62
2021/11/10 07:13:46;;;;;;;8.38;6.45;;;;;;;5.01;71.26;96240.65;1658488;83;21066;-62
2021/11/10 07:16:15;;;;;;;7.60;6.35;;;;;;;5.06;70.59;96247.91;1700989;83;21114;-63
2021/11/10 07:18:42;;;;;;;11.03;7.40;;;;;;;5.11;70.55;96248.93;1703613;82;21147;-64
2021/11/10 07:21:09;;;;;;;7.92;5.97;;;;;;;5.21;70.20;96246.09;1693512;83;21922;-63
2021/11/10 07:23:36;;;;;;;6.67;5.97;;;;;;;5.19;69.80;96241.00;1662485;82;21096;-62
2021/11/10 07:26:02;;;;;;;11.15;7.60;;;;;;;5.12;69.75;96250.50;1677995;83;21070;-62
2021/11/10 07:28:34;;;;;;;8.08;6.78;;;;;;;5.06;69.80;96245.75;1697817;82;21130;-61
2021/11/10 07:31:02;;;;;;;12.50;7.47;;;;;;;5.06;69.89;96242.45;1685349;83;21798;-60
2021/11/10 07:33:29;;;;;;;28.85;9.35;;;;;;;5.07;69.75;96241.30;1672719;83;21308;-64
2021/11/10 07:35:56;;;;;;;14.65;8.28;;;;;;;5.01;69.80;96240.05;1686621;82;21076;-62
2021/11/10 07:38:25;;;;;;;14.25;7.62;;;;;;;5.00;69.82;96234.39;1688067;83;21134;-63
2021/11/10 07:40:53;;;;;;;11.63;7.72;;;;;;;5.02;69.63;96228.58;1684967;82;21573;-62
2021/11/10 07:43:23;;;;;;;8.53;6.90;;;;;;;5.02;69.70;96229.38;1662726;83;21129;-63
2021/11/10 07:45:56;;;;;;;8.30;6.40;;;;;;;5.04;69.64;96230.34;1634667;86;21320;-62
2021/11/10 07:48:23;;;;;;;;;;;;;;;5.11;69.49;96232.56;1642924;86;21130;-64
2021/11/10 07:50:50;;;;;;;8.45;6.85;;;;;;;5.14;69.57;96231.80;1680020;83;21294;-60
2021/11/10 07:53:17;;;;;;;10.72;7.83;;;;;;;5.16;69.60;96239.62;1674306;83;21118;-65
2021/11/10 07:55:43;;;;;;;8.00;6.87;;;;;;;5.16;69.68;96234.94;1650567;84;21134;-70
2021/11/10 07:58:11;;;;;;;7.95;5.60;;;;;;;5.18;69.63;96237.30;1713523;82;21012;-65
2021/11/10 08:00:39;;;;;;;10.93;7.17;;;;;;;5.20;69.44;96234.41;1686619;82;21121;-65
2021/11/10 08:03:06;;;;;;;8.15;4.92;;;;;;;5.18;69.65;96238.07;1688689;82;21152;-71
2021/11/10 08:05:34;;;;;;;6.65;4.65;;;;;;;5.23;69.65;96240.48;1702457;81;21021;-66
2021/11/10 08:08:01;;;;;;;7.08;5.83;;;;;;;5.32;68.96;96230.81;1668115;83;21823;-65
2021/11/10 08:10:28;;;;;;;6.15;5.55;;;;;;;5.34;69.03;96224.96;1684342;83;21118;-63
2021/11/10 08:12:55;;;;;;;7.25;5.83;;;;;;;5.39;68.88;96224.04;1679072;83;21003;-63
2021/11/10 08:15:22;;;;;;;8.28;5.80;;;;;;;5.44;68.98;96224.28;1702320;83;21066;-62
2021/11/10 08:17:48;;;;;;;12.40;6.90;;;;;;;5.56;69.10;96234.31;1703570;83;21018;-63
2021/11/10 08:20:17;;;;;;;8.80;7.00;;;;;;;5.67;68.83;96232.45;1664964;81;21087;-62
2021/11/10 08:22:45;;;;;;;10.48;6.90;;;;;;;5.77;68.68;96225.50;1680207;82;21581;-61
2021/11/10 08:25:26;;;;;;;6.75;6.05;;;;;;;5.89;68.36;96221.10;1688513;82;21079;-66
2021/11/10 08:28:04;;;;;;;8.55;6.10;;;;;;;6.02;68.32;96208.70;1658100;83;21091;-62
2021/11/10 08:30:36;;;;;;;9.00;6.15;;;;;;;6.26;68.17;96211.56;1661676;83;21054;-59
2021/11/10 08:33:04;;;;;;;8.50;6.28;;;;;;;6.45;67.90;96212.62;1691717;81;21130;-63
2021/11/10 08:35:30;;;;;;;7.78;6.58;;;;;;;6.70;67.29;96209.37;1673938;83;21151;-61
2021/11/10 08:37:57;;;;;;;14.85;7.87;;;;;;;6.93;67.40;96204.37;1690333;83;21108;-62
2021/11/10 08:40:25;;;;;;;14.43;9.18;;;;;;;7.22;66.79;96210.05;1671859;83;21088;-60
2021/11/10 08:42:53;;;;;;;11.08;8.03;;;;;;;7.42;66.07;96207.13;1686304;82;21891;-65
2021/11/10 08:45:25;;;;;;;10.08;8.10;;;;;;;7.56;65.13;96209.27;1673942;83;21598;-64
2021/11/10 08:47:53;;;;;;;8.18;7.20;;;;;;;7.69;65.15;96206.34;1692138;83;21029;-62
2021/11/10 08:50:21;;;;;;;6.53;5.70;;;;;;;7.96;64.57;96196.53;1686985;82;22135;-64
2021/11/10 08:52:48;;;;;;;11.22;7.75;;;;;;;8.31;63.15;96196.45;1694459;82;21034;-60
2021/11/10 08:55:16;;;;;;;13.95;8.05;;;;;;;8.64;61.99;96196.51;1696528;83;21067;-62
2021/11/10 08:57:43;;;;;;;8.23;6.00;;;;;;;8.94;61.22;96187.91;1679981;82;21987;-62
2021/11/10 09:00:14;;;;;;;8.20;6.67;;;;;;;9.18;60.61;96199.31;1691136;83;21154;-60
2021/11/10 09:02:42;;;;;;;7.83;5.92;;;;;;;9.45;59.64;96201.69;1698792;82;20951;-63
2021/11/10 09:05:11;;;;;;;13.38;7.95;;;;;;;9.70;57.77;96185.77;1695580;83;21833;-61
2021/11/10 09:07:38;;;;;;;11.63;6.53;;;;;;;9.72;57.94;96180.06;1695089;83;21132;-65
2021/11/10 09:10:09;;;;;;;10.32;5.92;;;;;;;9.95;58.23;96178.08;1692321;82;21521;-62
2021/11/10 09:12:42;;;;;;;9.90;5.40;;;;;;;10.26;57.99;96172.84;1686540;82;21118;-61
2021/11/10 09:15:11;;;;;;;6.17;4.97;;;;;;;10.54;57.18;96166.41;1681336;83;21127;-63
2021/11/10 09:17:40;;;;;;;11.75;6.53;;;;;;;10.78;56.56;96170.22;1704812;82;21062;-61
2021/11/10 09:20:14;;;;;;;11.55;6.25;;;;;;;11.04;55.77;96167.31;1687969;83;21174;-62
2021/11/10 09:22:41;;;;;;;15.32;7.12;;;;;;;11.23;54.62;96159.16;1706778;82;21150;-62
2021/11/10 09:25:11;;;;;;;8.73;5.67;;;;;;;11.25;53.77;96158.15;1693777;81;21026;-62
2021/11/10 09:27:39;;;;;;;10.40;7.58;;;;;;;11.37;54.19;96158.16;1694955;82;21033;-62
2021/11/10 09:30:09;;;;;;;11.45;7.50;;;;;;;11.65;53.43;96146.09;1683005;83;21117;-61
2021/11/10 09:32:38;;;;;;;12.78;7.70;;;;;;;11.80;52.99;96148.80;1701449;82;22193;-59
2021/11/10 09:35:10;;;;;;;7.60;6.12;;;;;;;11.71;53.16;96144.41;1674582;84;21192;-62
2021/11/10 09:37:38;;;;;;;6.75;5.37;;;;;;;11.60;52.22;96146.59;1681435;83;21166;-64
2021/11/10 09:40:06;;;;;;;5.78;3.65;;;;;;;11.46;52.18;96135.77;1713686;82;21191;-64
2021/11/10 09:42:35;;;;;;;5.85;4.40;;;;;;;11.46;52.28;96133.00;1685113;82;21058;-64
2021/11/10 09:45:05;;;;;;;6.10;4.03;;;;;;;11.48;51.86;96134.74;1699573;82;21056;-62
2021/11/10 09:47:34;;;;;;;5.28;3.98;;;;;;;11.63;51.79;96126.45;1682682;83;21128;-63
2021/11/10 09:50:01;;;;;;;14.50;5.40;;;;;;;12.13;50.82;96120.21;1688754;82;21065;-61
2021/11/10 09:52:28;;;;;;;6.90;5.30;;;;;;;12.58;49.16;96121.25;1658874;83;21400;-58
2021/11/10 09:54:55;;;;;;;12.10;4.42;;;;;;;12.85;48.67;96118.48;1668380;83;21067;-60
2021/11/10 09:57:22;;;;;;;3.95;3.33;;;;;;;13.03;47.96;96107.84;1675538;84;21105;-58
2021/11/10 09:59:49;;;;;;;4.80;3.77;;;;;;;12.99;46.92;96101.63;1655189;84;21164;-61
2021/11/10 10:02:17;;;;;;;14.87;5.15;;;;;;;12.78;46.86;96113.13;1640677;85;21561;-63
2021/11/10 10:04:44;;;;;;;9.20;4.90;;;;;;;12.54;46.96;96103.98;1666297;84;21057;-61
2021/11/10 10:07:12;;;;;;;10.65;4.78;;;;;;;12.51;47.35;96102.67;1701051;83;21074;-63
2021/11/10 10:09:41;;;;;;;11.25;4.55;;;;;;;12.50;47.67;96090.08;1697786;82;21038;-62
2021/11/10 10:12:09;;;;;;;5.47;4.58;;;;;;;12.44;47.73;96093.94;1696957;82;22183;-58
2021/11/10 10:14:37;;;;;;;6.70;4.20;;;;;;;12.44;47.34;96089.80;1688186;82;21062;-61
2021/11/10 10:17:07;;;;;;;14.63;5.17;;;;;;;12.59;47.40;96082.18;1721509;82;21487;-62
2021/11/10 10:19:40;;;;;;;16.42;5.72;;;;;;;12.82;47.13;96083.44;1707221;82;21070;-61
2021/11/10 10:22:19;;;;;;;6.12;4.40;;;;;;;13.09;46.61;96074.33;1703746;82;21041;-65
2021/11/10 10:24:51;;;;;;;13.72;5.35;;;;;;;13.42;45.71;96066.84;1680697;82;22656;-61
2021/11/10 10:27:32;;;;;;;7.10;4.50;;;;;;;13.73;44.64;96066.60;1650519;84;21585;-62
2021/11/10 10:30:35;;;;;;;12.95;4.95;;;;;;;13.83;44.43;96058.64;1676838;82;21001;-61
2021/11/10 10:33:12;;;;;;;6.60;4.37;;;;;;;13.97;44.03;96058.27;1698216;82;21302;-62
2021/11/10 10:35:51;;;;;;;8.53;4.08;;;;;;;14.18;43.33;96056.31;1707680;82;21038;-60
2021/11/10 10:38:25;;;;;;;6.12;4.62;;;;;;;14.45;42.89;96041.64;1701730;83;21112;-65
2021/11/10 10:40:54;;;;;;;9.78;4.00;;;;;;;14.84;41.87;96052.31;1678569;83;21198;-63
2021/11/10 10:43:23;;;;;;;18.12;4.92;;;;;;;15.09;41.75;96043.22;1673726;83;21116;-62
2021/11/10 10:45:52;;;;;;;7.87;3.92;;;;;;;15.27;41.34;96039.27;1672863;84;21093;-64
2021/11/10 10:48:27;;;;;;;12.03;4.72;;;;;;;15.41;41.04;96039.63;1699002;83;21089;-62
2021/11/10 10:51:03;;;;;;;15.20;5.60;;;;;;;15.43;41.14;96039.95;1650373;85;22484;-62
2021/11/10 10:53:38;;;;;;;6.55;3.25;;;;;;;15.45;40.60;96039.49;1653805;85;21044;-61
2021/11/10 10:56:30;;;;;;;4.47;3.22;;;;;;;15.77;39.88;96031.63;1668537;85;21062;-62
2021/11/10 10:59:04;;;;;;;12.13;3.55;;;;;;;16.09;39.67;96024.34;1647628;85;21123;-62
2021/11/10 11:01:37;;;;;;;8.53;4.10;;;;;;;16.55;39.26;96025.59;1656875;84;21106;-64
2021/11/10 11:04:19;;;;;;;11.10;4.30;;;;;;;16.88;37.92;96023.16;1685960;83;21145;-63
2021/11/10 11:07:03;;;;;;;8.03;4.67;;;;;;;17.09;37.65;96015.36;1651817;85;21069;-62
2021/11/10 11:09:49;;;;;;;9.35;5.55;;;;;;;17.12;37.52;96010.27;1686600;83;21072;-61
2021/11/10 11:12:34;;;;;;;17.00;6.80;;;;;;;17.02;37.20;96009.46;1658416;83;22148;-60
2021/11/10 11:15:24;;;;;;;16.80;10.13;;;;;;;16.93;37.86;96003.09;1702046;82;21103;-62
2021/11/10 11:17:47;;;;;;;20.23;9.38;;;;;;;17.24;37.12;96001.04;1706654;82;21125;-62
2021/11/10 11:20:20;;;;;;;25.23;10.38;;;;;;;17.53;36.87;95995.85;1703344;82;21014;-62
2021/11/10 11:22:53;;;;;;;17.77;7.03;;;;;;;17.81;36.19;95990.48;1717622;81;20971;-63
2021/11/10 11:25:23;;;;;;;7.25;5.22;;;;;;;18.15;35.72;95985.98;1692951;81;21113;-63
2021/11/10 11:28:09;;;;;;;22.87;6.03;;;;;;;18.48;34.92;95992.59;1664213;82;21108;-62
2021/11/10 11:30:52;;;;;;;7.42;4.28;;;;;;;18.85;34.77;95982.11;1705306;82;21131;-62
2021/11/10 11:33:21;;;;;;;8.83;3.20;;;;;;;19.41;34.10;95978.73;1692923;83;21086;-61
2021/11/10 11:35:55;;;;;;;8.85;3.77;;;;;;;19.94;32.83;95979.59;1684678;83;21056;-63
2021/11/10 11:38:25;;;;;;;6.25;3.30;;;;;;;20.27;32.62;95969.87;1698867;82;21014;-63
2021/11/10 11:40:55;;;;;;;6.10;2.98;;;;;;;20.57;32.31;95974.21;1689877;83;21132;-63
2021/11/10 11:43:25;;;;;;;6.65;2.77;;;;;;;20.96;31.76;95967.25;1706723;83;21766;-63
2021/11/10 11:45:54;;;;;;;4.60;2.77;;;;;;;21.19;30.91;95965.57;1699269;82;21046;-63
2021/11/10 11:48:25;;;;;;;3.05;2.75;;;;;;;21.31;31.12;95965.89;1689314;82;20978;-63